Seaford, Virginia
Current Conditions -  °F | °C
As of 9:54 PM on Tuesday 25 Nov 2014 (Local Time) from KPHF Reporting Station
Light Rain Light Rain  
Wind Chill: 52°   Ceiling: 8000
Heat Index: 52°   Visibility: 7mi
Dew Point: 47°   Wind: 0mph
Humidity: 83%   Direction: NA
Pressure: 30.14"   Gusts: NA
Location:  37.2°N, 76.43°W
Report Text: KPHF 260254Z 00000KT 7SM -RA SCT060 OVC080 11/08 A3014 RMK AO2 SLP206 P0001 60001 T01110083 51019
Loading
Personal Weather Stations






























Interactive Weather Map New forecast layout! Learn more

10-Day Weather Forecast

Advertisements
Track Severe Weather on mobile